sensor_id;sensor_type;location;lat;lon;timestamp;P1;durP1;ratioP1;P2;durP2;ratioP2
8232;SDS011;4157;48.074;9.952;2022-07-19T00:00:43;6.68;;;2.78;;
8232;SDS011;4157;48.074;9.952;2022-07-19T00:03:12;5.65;;;2.65;;
8232;SDS011;4157;48.074;9.952;2022-07-19T00:05:40;6.53;;;2.45;;
8232;SDS011;4157;48.074;9.952;2022-07-19T00:08:08;5.35;;;1.95;;
8232;SDS011;4157;48.074;9.952;2022-07-19T00:10:36;3.78;;;2.10;;
8232;SDS011;4157;48.074;9.952;2022-07-19T00:13:04;4.05;;;2.50;;
8232;SDS011;4157;48.074;9.952;2022-07-19T00:15:32;5.10;;;2.42;;
8232;SDS011;4157;48.074;9.952;2022-07-19T00:18:01;4.55;;;2.30;;
8232;SDS011;4157;48.074;9.952;2022-07-19T00:20:29;4.53;;;2.25;;
8232;SDS011;4157;48.074;9.952;2022-07-19T00:22:56;7.07;;;2.58;;
8232;SDS011;4157;48.074;9.952;2022-07-19T00:25:24;6.07;;;2.40;;
8232;SDS011;4157;48.074;9.952;2022-07-19T00:27:52;5.85;;;2.40;;
8232;SDS011;4157;48.074;9.952;2022-07-19T00:30:20;6.07;;;2.30;;
8232;SDS011;4157;48.074;9.952;2022-07-19T00:32:48;4.95;;;2.33;;
8232;SDS011;4157;48.074;9.952;2022-07-19T00:35:17;5.82;;;2.42;;
8232;SDS011;4157;48.074;9.952;2022-07-19T00:37:45;6.32;;;2.33;;
8232;SDS011;4157;48.074;9.952;2022-07-19T00:40:13;5.18;;;2.35;;
8232;SDS011;4157;48.074;9.952;2022-07-19T00:42:41;5.90;;;2.30;;
8232;SDS011;4157;48.074;9.952;2022-07-19T00:45:09;7.57;;;2.22;;
8232;SDS011;4157;48.074;9.952;2022-07-19T00:47:37;4.00;;;2.33;;
8232;SDS011;4157;48.074;9.952;2022-07-19T00:50:05;6.00;;;2.45;;
8232;SDS011;4157;48.074;9.952;2022-07-19T00:52:34;4.72;;;2.35;;
8232;SDS011;4157;48.074;9.952;2022-07-19T00:55:04;4.05;;;2.30;;
8232;SDS011;4157;48.074;9.952;2022-07-19T00:57:32;5.22;;;2.40;;
8232;SDS011;4157;48.074;9.952;2022-07-19T01:00:01;5.28;;;2.13;;
8232;SDS011;4157;48.074;9.952;2022-07-19T01:02:29;5.97;;;2.70;;
8232;SDS011;4157;48.074;9.952;2022-07-19T01:04:57;5.70;;;2.55;;
8232;SDS011;4157;48.074;9.952;2022-07-19T01:07:26;5.68;;;2.13;;
8232;SDS011;4157;48.074;9.952;2022-07-19T01:09:55;3.40;;;2.17;;
8232;SDS011;4157;48.074;9.952;2022-07-19T01:12:24;5.03;;;2.53;;
8232;SDS011;4157;48.074;9.952;2022-07-19T01:14:54;5.60;;;2.50;;
8232;SDS011;4157;48.074;9.952;2022-07-19T01:17:23;5.97;;;2.40;;
8232;SDS011;4157;48.074;9.952;2022-07-19T01:19:50;5.40;;;2.53;;
8232;SDS011;4157;48.074;9.952;2022-07-19T01:22:19;5.00;;;2.50;;
8232;SDS011;4157;48.074;9.952;2022-07-19T01:24:47;4.22;;;2.08;;
8232;SDS011;4157;48.074;9.952;2022-07-19T01:27:15;4.78;;;2.45;;
8232;SDS011;4157;48.074;9.952;2022-07-19T01:29:43;7.40;;;2.40;;
8232;SDS011;4157;48.074;9.952;2022-07-19T01:32:11;5.93;;;2.28;;
8232;SDS011;4157;48.074;9.952;2022-07-19T01:34:38;4.30;;;2.17;;
8232;SDS011;4157;48.074;9.952;2022-07-19T01:37:06;5.15;;;2.63;;
8232;SDS011;4157;48.074;9.952;2022-07-19T01:39:35;4.40;;;1.98;;
8232;SDS011;4157;48.074;9.952;2022-07-19T01:42:03;4.45;;;2.30;;
8232;SDS011;4157;48.074;9.952;2022-07-19T01:44:31;4.30;;;2.40;;
8232;SDS011;4157;48.074;9.952;2022-07-19T01:46:59;4.78;;;2.55;;
8232;SDS011;4157;48.074;9.952;2022-07-19T01:49:27;4.70;;;2.55;;
8232;SDS011;4157;48.074;9.952;2022-07-19T01:51:55;4.88;;;2.35;;
8232;SDS011;4157;48.074;9.952;2022-07-19T01:54:23;4.15;;;2.38;;
8232;SDS011;4157;48.074;9.952;2022-07-19T01:56:52;3.53;;;2.05;;
8232;SDS011;4157;48.074;9.952;2022-07-19T01:59:20;3.95;;;2.20;;
8232;SDS011;4157;48.074;9.952;2022-07-19T02:01:47;5.22;;;2.30;;
8232;SDS011;4157;48.074;9.952;2022-07-19T02:04:15;5.30;;;2.25;;
8232;SDS011;4157;48.074;9.952;2022-07-19T02:06:43;4.75;;;2.28;;
8232;SDS011;4157;48.074;9.952;2022-07-19T02:09:11;6.60;;;2.30;;
8232;SDS011;4157;48.074;9.952;2022-07-19T02:11:39;5.05;;;2.28;;
8232;SDS011;4157;48.074;9.952;2022-07-19T02:14:08;5.63;;;2.60;;
8232;SDS011;4157;48.074;9.952;2022-07-19T02:16:37;4.20;;;2.20;;
8232;SDS011;4157;48.074;9.952;2022-07-19T02:19:06;4.80;;;2.42;;
8232;SDS011;4157;48.074;9.952;2022-07-19T02:21:34;4.10;;;2.30;;
8232;SDS011;4157;48.074;9.952;2022-07-19T02:24:02;4.22;;;2.10;;
8232;SDS011;4157;48.074;9.952;2022-07-19T02:26:30;3.88;;;2.30;;
8232;SDS011;4157;48.074;9.952;2022-07-19T02:28:58;5.22;;;2.35;;
8232;SDS011;4157;48.074;9.952;2022-07-19T02:31:27;4.88;;;2.45;;
8232;SDS011;4157;48.074;9.952;2022-07-19T02:33:55;6.28;;;2.50;;
8232;SDS011;4157;48.074;9.952;2022-07-19T02:36:23;4.65;;;2.38;;
8232;SDS011;4157;48.074;9.952;2022-07-19T02:38:51;6.05;;;2.42;;
8232;SDS011;4157;48.074;9.952;2022-07-19T02:41:19;4.30;;;2.30;;
8232;SDS011;4157;48.074;9.952;2022-07-19T02:43:46;4.75;;;2.47;;
8232;SDS011;4157;48.074;9.952;2022-07-19T02:46:14;6.40;;;2.35;;
8232;SDS011;4157;48.074;9.952;2022-07-19T02:48:43;5.43;;;2.80;;
8232;SDS011;4157;48.074;9.952;2022-07-19T02:51:11;7.38;;;2.40;;
8232;SDS011;4157;48.074;9.952;2022-07-19T02:53:39;5.55;;;2.58;;
8232;SDS011;4157;48.074;9.952;2022-07-19T02:56:07;4.53;;;2.67;;
8232;SDS011;4157;48.074;9.952;2022-07-19T02:58:35;6.20;;;2.45;;
8232;SDS011;4157;48.074;9.952;2022-07-19T03:01:02;5.35;;;2.47;;
8232;SDS011;4157;48.074;9.952;2022-07-19T03:03:30;4.60;;;2.65;;
8232;SDS011;4157;48.074;9.952;2022-07-19T03:06:13;5.15;;;2.97;;
8232;SDS011;4157;48.074;9.952;2022-07-19T03:08:41;6.03;;;3.40;;
8232;SDS011;4157;48.074;9.952;2022-07-19T03:11:09;6.13;;;3.10;;
8232;SDS011;4157;48.074;9.952;2022-07-19T03:13:37;5.10;;;3.10;;
8232;SDS011;4157;48.074;9.952;2022-07-19T03:16:05;5.25;;;3.25;;
8232;SDS011;4157;48.074;9.952;2022-07-19T03:18:33;6.65;;;3.50;;
8232;SDS011;4157;48.074;9.952;2022-07-19T03:21:01;5.57;;;3.20;;
8232;SDS011;4157;48.074;9.952;2022-07-19T03:23:31;8.73;;;3.28;;
8232;SDS011;4157;48.074;9.952;2022-07-19T03:26:00;7.70;;;3.80;;
8232;SDS011;4157;48.074;9.952;2022-07-19T03:28:28;5.07;;;3.05;;
8232;SDS011;4157;48.074;9.952;2022-07-19T03:30:56;7.30;;;3.65;;
8232;SDS011;4157;48.074;9.952;2022-07-19T03:33:23;6.45;;;3.53;;
8232;SDS011;4157;48.074;9.952;2022-07-19T03:35:51;4.85;;;3.03;;
8232;SDS011;4157;48.074;9.952;2022-07-19T03:38:19;6.72;;;3.30;;
8232;SDS011;4157;48.074;9.952;2022-07-19T03:40:48;7.45;;;3.78;;
8232;SDS011;4157;48.074;9.952;2022-07-19T03:43:16;5.70;;;3.47;;
8232;SDS011;4157;48.074;9.952;2022-07-19T03:45:44;8.27;;;3.45;;
8232;SDS011;4157;48.074;9.952;2022-07-19T03:48:12;5.53;;;3.33;;
8232;SDS011;4157;48.074;9.952;2022-07-19T03:50:40;5.78;;;2.83;;
8232;SDS011;4157;48.074;9.952;2022-07-19T03:53:08;5.63;;;3.00;;
8232;SDS011;4157;48.074;9.952;2022-07-19T03:55:36;6.43;;;3.40;;
8232;SDS011;4157;48.074;9.952;2022-07-19T03:58:05;7.35;;;3.20;;
8232;SDS011;4157;48.074;9.952;2022-07-19T04:00:33;6.43;;;3.15;;
8232;SDS011;4157;48.074;9.952;2022-07-19T04:03:01;5.63;;;3.33;;
8232;SDS011;4157;48.074;9.952;2022-07-19T04:05:29;9.73;;;3.80;;
8232;SDS011;4157;48.074;9.952;2022-07-19T04:07:57;7.72;;;3.33;;
8232;SDS011;4157;48.074;9.952;2022-07-19T04:10:25;5.38;;;3.53;;
8232;SDS011;4157;48.074;9.952;2022-07-19T04:12:53;5.68;;;2.83;;
8232;SDS011;4157;48.074;9.952;2022-07-19T04:15:22;4.90;;;3.03;;
8232;SDS011;4157;48.074;9.952;2022-07-19T04:17:50;6.15;;;3.35;;
8232;SDS011;4157;48.074;9.952;2022-07-19T04:20:17;5.90;;;3.17;;
8232;SDS011;4157;48.074;9.952;2022-07-19T04:22:45;5.03;;;2.78;;
8232;SDS011;4157;48.074;9.952;2022-07-19T04:25:13;5.28;;;2.63;;
8232;SDS011;4157;48.074;9.952;2022-07-19T04:27:41;9.15;;;2.95;;
8232;SDS011;4157;48.074;9.952;2022-07-19T04:30:10;6.10;;;3.15;;
8232;SDS011;4157;48.074;9.952;2022-07-19T04:32:39;6.20;;;3.22;;
8232;SDS011;4157;48.074;9.952;2022-07-19T04:35:07;6.20;;;3.13;;
8232;SDS011;4157;48.074;9.952;2022-07-19T04:37:35;10.68;;;3.75;;
8232;SDS011;4157;48.074;9.952;2022-07-19T04:40:03;6.28;;;3.60;;
8232;SDS011;4157;48.074;9.952;2022-07-19T04:42:32;8.73;;;4.00;;
8232;SDS011;4157;48.074;9.952;2022-07-19T04:45:00;9.38;;;4.25;;
8232;SDS011;4157;48.074;9.952;2022-07-19T04:47:28;9.27;;;4.78;;
8232;SDS011;4157;48.074;9.952;2022-07-19T04:49:57;12.23;;;5.28;;
8232;SDS011;4157;48.074;9.952;2022-07-19T04:52:24;8.68;;;4.22;;
8232;SDS011;4157;48.074;9.952;2022-07-19T04:54:52;8.55;;;4.38;;
8232;SDS011;4157;48.074;9.952;2022-07-19T04:57:20;8.25;;;4.88;;
8232;SDS011;4157;48.074;9.952;2022-07-19T04:59:48;12.43;;;4.55;;
8232;SDS011;4157;48.074;9.952;2022-07-19T05:02:16;8.98;;;4.50;;
8232;SDS011;4157;48.074;9.952;2022-07-19T05:04:44;8.73;;;4.10;;
8232;SDS011;4157;48.074;9.952;2022-07-19T05:07:13;7.40;;;4.00;;
8232;SDS011;4157;48.074;9.952;2022-07-19T05:09:41;8.48;;;4.60;;
8232;SDS011;4157;48.074;9.952;2022-07-19T05:12:09;6.47;;;4.35;;
8232;SDS011;4157;48.074;9.952;2022-07-19T05:14:37;7.78;;;5.10;;
8232;SDS011;4157;48.074;9.952;2022-07-19T05:17:05;8.50;;;4.95;;
8232;SDS011;4157;48.074;9.952;2022-07-19T05:19:33;9.25;;;4.82;;
8232;SDS011;4157;48.074;9.952;2022-07-19T05:22:00;8.25;;;4.53;;
8232;SDS011;4157;48.074;9.952;2022-07-19T05:24:30;9.25;;;5.10;;
8232;SDS011;4157;48.074;9.952;2022-07-19T05:26:57;8.65;;;4.75;;
8232;SDS011;4157;48.074;9.952;2022-07-19T05:29:26;9.88;;;4.60;;
8232;SDS011;4157;48.074;9.952;2022-07-19T05:31:53;8.07;;;4.55;;
8232;SDS011;4157;48.074;9.952;2022-07-19T05:34:21;8.80;;;5.10;;
8232;SDS011;4157;48.074;9.952;2022-07-19T05:36:49;8.23;;;5.00;;
8232;SDS011;4157;48.074;9.952;2022-07-19T05:39:17;8.50;;;4.57;;
8232;SDS011;4157;48.074;9.952;2022-07-19T05:41:46;8.05;;;4.72;;
8232;SDS011;4157;48.074;9.952;2022-07-19T05:44:14;7.38;;;4.47;;
8232;SDS011;4157;48.074;9.952;2022-07-19T05:46:42;7.75;;;3.88;;
8232;SDS011;4157;48.074;9.952;2022-07-19T05:49:09;8.68;;;4.05;;
8232;SDS011;4157;48.074;9.952;2022-07-19T05:51:37;5.80;;;3.55;;
8232;SDS011;4157;48.074;9.952;2022-07-19T05:54:05;8.77;;;5.00;;
8232;SDS011;4157;48.074;9.952;2022-07-19T05:56:33;10.93;;;4.75;;
8232;SDS011;4157;48.074;9.952;2022-07-19T05:59:03;8.38;;;5.07;;
8232;SDS011;4157;48.074;9.952;2022-07-19T06:01:30;10.60;;;5.05;;
8232;SDS011;4157;48.074;9.952;2022-07-19T06:03:59;12.02;;;4.90;;
8232;SDS011;4157;48.074;9.952;2022-07-19T06:06:27;13.90;;;5.90;;
8232;SDS011;4157;48.074;9.952;2022-07-19T06:08:55;10.15;;;4.95;;
8232;SDS011;4157;48.074;9.952;2022-07-19T06:11:23;13.13;;;4.85;;
8232;SDS011;4157;48.074;9.952;2022-07-19T06:13:51;13.40;;;5.55;;
8232;SDS011;4157;48.074;9.952;2022-07-19T06:16:20;13.48;;;5.43;;
8232;SDS011;4157;48.074;9.952;2022-07-19T06:18:48;7.00;;;4.35;;
8232;SDS011;4157;48.074;9.952;2022-07-19T06:21:16;6.68;;;4.35;;
8232;SDS011;4157;48.074;9.952;2022-07-19T06:23:45;8.45;;;4.75;;
8232;SDS011;4157;48.074;9.952;2022-07-19T06:26:13;7.70;;;4.40;;
8232;SDS011;4157;48.074;9.952;2022-07-19T06:28:41;9.70;;;4.97;;
8232;SDS011;4157;48.074;9.952;2022-07-19T06:31:09;9.75;;;4.93;;
8232;SDS011;4157;48.074;9.952;2022-07-19T06:33:39;8.07;;;4.50;;
8232;SDS011;4157;48.074;9.952;2022-07-19T06:36:07;8.63;;;5.03;;
8232;SDS011;4157;48.074;9.952;2022-07-19T06:38:35;9.18;;;5.38;;
8232;SDS011;4157;48.074;9.952;2022-07-19T06:41:03;8.80;;;5.15;;
8232;SDS011;4157;48.074;9.952;2022-07-19T06:43:31;8.93;;;4.47;;
8232;SDS011;4157;48.074;9.952;2022-07-19T06:45:59;6.45;;;4.10;;
8232;SDS011;4157;48.074;9.952;2022-07-19T06:48:27;9.18;;;3.85;;
8232;SDS011;4157;48.074;9.952;2022-07-19T06:50:56;6.85;;;3.58;;
8232;SDS011;4157;48.074;9.952;2022-07-19T06:53:24;9.90;;;3.40;;
8232;SDS011;4157;48.074;9.952;2022-07-19T06:55:52;8.90;;;4.53;;
8232;SDS011;4157;48.074;9.952;2022-07-19T06:58:20;6.45;;;2.97;;
8232;SDS011;4157;48.074;9.952;2022-07-19T07:00:48;7.15;;;4.28;;
8232;SDS011;4157;48.074;9.952;2022-07-19T07:03:17;6.28;;;3.20;;
8232;SDS011;4157;48.074;9.952;2022-07-19T07:05:45;5.53;;;2.92;;
8232;SDS011;4157;48.074;9.952;2022-07-19T07:08:14;5.85;;;3.20;;
8232;SDS011;4157;48.074;9.952;2022-07-19T07:10:42;4.78;;;2.65;;
8232;SDS011;4157;48.074;9.952;2022-07-19T07:13:10;6.15;;;3.20;;
8232;SDS011;4157;48.074;9.952;2022-07-19T07:15:38;6.50;;;2.95;;
8232;SDS011;4157;48.074;9.952;2022-07-19T07:18:08;4.25;;;2.50;;
8232;SDS011;4157;48.074;9.952;2022-07-19T07:20:36;6.05;;;2.75;;
8232;SDS011;4157;48.074;9.952;2022-07-19T07:23:03;6.63;;;2.70;;
8232;SDS011;4157;48.074;9.952;2022-07-19T07:25:33;5.20;;;2.47;;
8232;SDS011;4157;48.074;9.952;2022-07-19T07:28:00;5.10;;;2.20;;
8232;SDS011;4157;48.074;9.952;2022-07-19T07:30:28;4.00;;;2.00;;
8232;SDS011;4157;48.074;9.952;2022-07-19T07:32:56;4.68;;;2.20;;
8232;SDS011;4157;48.074;9.952;2022-07-19T07:35:24;4.60;;;2.00;;
8232;SDS011;4157;48.074;9.952;2022-07-19T07:37:52;5.75;;;2.10;;
8232;SDS011;4157;48.074;9.952;2022-07-19T07:40:20;5.53;;;2.22;;
8232;SDS011;4157;48.074;9.952;2022-07-19T07:42:49;3.75;;;2.00;;
8232;SDS011;4157;48.074;9.952;2022-07-19T07:45:17;3.63;;;2.00;;
8232;SDS011;4157;48.074;9.952;2022-07-19T07:47:45;4.38;;;1.95;;
8232;SDS011;4157;48.074;9.952;2022-07-19T07:50:13;5.18;;;1.80;;
8232;SDS011;4157;48.074;9.952;2022-07-19T07:52:41;4.32;;;1.98;;
8232;SDS011;4157;48.074;9.952;2022-07-19T07:55:08;3.85;;;1.80;;
8232;SDS011;4157;48.074;9.952;2022-07-19T07:57:36;4.22;;;1.65;;
8232;SDS011;4157;48.074;9.952;2022-07-19T08:00:06;7.10;;;2.00;;
8232;SDS011;4157;48.074;9.952;2022-07-19T08:02:39;5.25;;;1.65;;
8232;SDS011;4157;48.074;9.952;2022-07-19T08:05:07;4.88;;;1.70;;
8232;SDS011;4157;48.074;9.952;2022-07-19T08:07:36;6.45;;;1.85;;
8232;SDS011;4157;48.074;9.952;2022-07-19T08:10:04;3.90;;;2.10;;
8232;SDS011;4157;48.074;9.952;2022-07-19T08:12:32;3.83;;;1.73;;
8232;SDS011;4157;48.074;9.952;2022-07-19T08:15:00;4.50;;;1.60;;
8232;SDS011;4157;48.074;9.952;2022-07-19T08:17:29;4.03;;;1.88;;
8232;SDS011;4157;48.074;9.952;2022-07-19T08:19:57;3.30;;;1.60;;
8232;SDS011;4157;48.074;9.952;2022-07-19T08:22:25;4.30;;;1.85;;
8232;SDS011;4157;48.074;9.952;2022-07-19T08:24:54;3.30;;;1.70;;
8232;SDS011;4157;48.074;9.952;2022-07-19T08:27:22;3.42;;;1.60;;
8232;SDS011;4157;48.074;9.952;2022-07-19T08:29:50;4.47;;;1.77;;
8232;SDS011;4157;48.074;9.952;2022-07-19T08:32:18;5.80;;;1.80;;
8232;SDS011;4157;48.074;9.952;2022-07-19T08:34:47;3.58;;;1.80;;
8232;SDS011;4157;48.074;9.952;2022-07-19T08:37:15;3.72;;;1.60;;
8232;SDS011;4157;48.074;9.952;2022-07-19T08:39:43;4.72;;;1.77;;
8232;SDS011;4157;48.074;9.952;2022-07-19T08:42:11;4.78;;;2.00;;
8232;SDS011;4157;48.074;9.952;2022-07-19T08:44:42;4.53;;;1.70;;
8232;SDS011;4157;48.074;9.952;2022-07-19T08:47:10;3.53;;;1.58;;
8232;SDS011;4157;48.074;9.952;2022-07-19T08:49:40;4.60;;;1.83;;
8232;SDS011;4157;48.074;9.952;2022-07-19T08:52:10;3.60;;;1.90;;
8232;SDS011;4157;48.074;9.952;2022-07-19T08:54:38;5.32;;;1.90;;
8232;SDS011;4157;48.074;9.952;2022-07-19T08:57:06;4.63;;;1.85;;
8232;SDS011;4157;48.074;9.952;2022-07-19T08:59:51;3.95;;;2.08;;
8232;SDS011;4157;48.074;9.952;2022-07-19T09:02:19;4.68;;;1.77;;
8232;SDS011;4157;48.074;9.952;2022-07-19T09:04:58;3.92;;;1.83;;
8232;SDS011;4157;48.074;9.952;2022-07-19T09:07:27;5.35;;;2.00;;
8232;SDS011;4157;48.074;9.952;2022-07-19T09:12:39;5.10;;;2.10;;
8232;SDS011;4157;48.074;9.952;2022-07-19T09:15:35;7.32;;;1.90;;
8232;SDS011;4157;48.074;9.952;2022-07-19T09:18:07;4.88;;;1.90;;
8232;SDS011;4157;48.074;9.952;2022-07-19T09:20:35;4.10;;;1.80;;
8232;SDS011;4157;48.074;9.952;2022-07-19T09:23:04;3.42;;;1.58;;
8232;SDS011;4157;48.074;9.952;2022-07-19T09:25:33;4.45;;;2.10;;
8232;SDS011;4157;48.074;9.952;2022-07-19T09:28:01;4.03;;;2.15;;
8232;SDS011;4157;48.074;9.952;2022-07-19T09:30:36;3.72;;;1.98;;
8232;SDS011;4157;48.074;9.952;2022-07-19T09:33:09;3.83;;;1.90;;
8232;SDS011;4157;48.074;9.952;2022-07-19T09:35:38;5.20;;;2.20;;
8232;SDS011;4157;48.074;9.952;2022-07-19T09:38:22;3.42;;;1.90;;
8232;SDS011;4157;48.074;9.952;2022-07-19T09:40:51;5.78;;;2.60;;
8232;SDS011;4157;48.074;9.952;2022-07-19T09:43:19;4.93;;;2.15;;
8232;SDS011;4157;48.074;9.952;2022-07-19T09:45:48;4.55;;;2.03;;
8232;SDS011;4157;48.074;9.952;2022-07-19T09:48:16;4.10;;;2.25;;
8232;SDS011;4157;48.074;9.952;2022-07-19T09:50:45;4.75;;;2.28;;
8232;SDS011;4157;48.074;9.952;2022-07-19T09:53:14;6.22;;;2.15;;
8232;SDS011;4157;48.074;9.952;2022-07-19T09:55:44;4.32;;;2.20;;
8232;SDS011;4157;48.074;9.952;2022-07-19T09:58:12;4.07;;;1.90;;
8232;SDS011;4157;48.074;9.952;2022-07-19T10:00:41;5.50;;;2.22;;
8232;SDS011;4157;48.074;9.952;2022-07-19T10:03:09;5.03;;;2.10;;
8232;SDS011;4157;48.074;9.952;2022-07-19T10:05:37;6.53;;;2.10;;
8232;SDS011;4157;48.074;9.952;2022-07-19T10:08:06;5.45;;;2.30;;
8232;SDS011;4157;48.074;9.952;2022-07-19T10:10:34;3.72;;;2.30;;
8232;SDS011;4157;48.074;9.952;2022-07-19T10:13:03;4.32;;;2.00;;
8232;SDS011;4157;48.074;9.952;2022-07-19T10:15:35;4.53;;;2.00;;
8232;SDS011;4157;48.074;9.952;2022-07-19T10:18:11;3.72;;;1.95;;
8232;SDS011;4157;48.074;9.952;2022-07-19T10:20:39;4.30;;;2.20;;
8232;SDS011;4157;48.074;9.952;2022-07-19T10:23:09;4.93;;;2.03;;
8232;SDS011;4157;48.074;9.952;2022-07-19T10:25:38;5.07;;;2.15;;
8232;SDS011;4157;48.074;9.952;2022-07-19T10:28:18;4.03;;;2.00;;
8232;SDS011;4157;48.074;9.952;2022-07-19T10:30:53;4.90;;;2.00;;
8232;SDS011;4157;48.074;9.952;2022-07-19T10:33:28;4.95;;;2.25;;
8232;SDS011;4157;48.074;9.952;2022-07-19T10:35:56;5.70;;;2.10;;
8232;SDS011;4157;48.074;9.952;2022-07-19T10:38:24;6.53;;;2.13;;
8232;SDS011;4157;48.074;9.952;2022-07-19T10:40:53;5.00;;;2.10;;
8232;SDS011;4157;48.074;9.952;2022-07-19T10:43:25;4.97;;;2.13;;
8232;SDS011;4157;48.074;9.952;2022-07-19T10:46:09;3.47;;;1.80;;
8232;SDS011;4157;48.074;9.952;2022-07-19T10:48:40;3.88;;;2.00;;
8232;SDS011;4157;48.074;9.952;2022-07-19T10:51:10;3.53;;;1.80;;
8232;SDS011;4157;48.074;9.952;2022-07-19T10:56:22;5.90;;;1.95;;
8232;SDS011;4157;48.074;9.952;2022-07-19T10:58:52;4.53;;;2.08;;
8232;SDS011;4157;48.074;9.952;2022-07-19T11:01:21;10.68;;;2.30;;
8232;SDS011;4157;48.074;9.952;2022-07-19T11:03:50;4.32;;;2.00;;
8232;SDS011;4157;48.074;9.952;2022-07-19T11:06:19;9.57;;;2.30;;
8232;SDS011;4157;48.074;9.952;2022-07-19T11:08:47;5.82;;;2.15;;
8232;SDS011;4157;48.074;9.952;2022-07-19T11:11:16;3.53;;;1.85;;
8232;SDS011;4157;48.074;9.952;2022-07-19T11:13:44;5.13;;;2.17;;
8232;SDS011;4157;48.074;9.952;2022-07-19T11:16:23;8.98;;;2.33;;
8232;SDS011;4157;48.074;9.952;2022-07-19T11:19:01;4.13;;;2.30;;
8232;SDS011;4157;48.074;9.952;2022-07-19T11:21:30;6.60;;;2.08;;
8232;SDS011;4157;48.074;9.952;2022-07-19T11:23:58;9.43;;;2.35;;
8232;SDS011;4157;48.074;9.952;2022-07-19T11:26:26;6.22;;;2.42;;
8232;SDS011;4157;48.074;9.952;2022-07-19T11:28:54;5.70;;;2.28;;
8232;SDS011;4157;48.074;9.952;2022-07-19T11:31:23;7.05;;;2.50;;
8232;SDS011;4157;48.074;9.952;2022-07-19T11:33:52;6.32;;;2.60;;
8232;SDS011;4157;48.074;9.952;2022-07-19T11:36:22;7.38;;;2.78;;
8232;SDS011;4157;48.074;9.952;2022-07-19T11:38:50;6.47;;;2.63;;
8232;SDS011;4157;48.074;9.952;2022-07-19T11:41:19;9.48;;;2.22;;
8232;SDS011;4157;48.074;9.952;2022-07-19T11:43:50;6.80;;;2.40;;
8232;SDS011;4157;48.074;9.952;2022-07-19T11:46:19;6.13;;;3.13;;
8232;SDS011;4157;48.074;9.952;2022-07-19T11:48:49;7.55;;;2.67;;
8232;SDS011;4157;48.074;9.952;2022-07-19T11:51:17;9.00;;;2.55;;
8232;SDS011;4157;48.074;9.952;2022-07-19T11:53:47;5.85;;;2.58;;
8232;SDS011;4157;48.074;9.952;2022-07-19T11:56:17;7.30;;;2.65;;
8232;SDS011;4157;48.074;9.952;2022-07-19T11:58:48;5.22;;;2.38;;
8232;SDS011;4157;48.074;9.952;2022-07-19T12:01:21;8.60;;;2.85;;
8232;SDS011;4157;48.074;9.952;2022-07-19T12:03:55;5.78;;;2.60;;
8232;SDS011;4157;48.074;9.952;2022-07-19T12:06:35;6.07;;;2.70;;
8232;SDS011;4157;48.074;9.952;2022-07-19T12:09:04;4.60;;;2.42;;
8232;SDS011;4157;48.074;9.952;2022-07-19T12:11:37;6.72;;;2.58;;
8232;SDS011;4157;48.074;9.952;2022-07-19T12:14:17;6.30;;;2.60;;
8232;SDS011;4157;48.074;9.952;2022-07-19T12:19:13;6.45;;;2.60;;
8232;SDS011;4157;48.074;9.952;2022-07-19T12:21:43;4.95;;;2.50;;
8232;SDS011;4157;48.074;9.952;2022-07-19T12:24:15;7.53;;;2.88;;
8232;SDS011;4157;48.074;9.952;2022-07-19T12:26:44;6.82;;;2.38;;
8232;SDS011;4157;48.074;9.952;2022-07-19T12:29:26;7.32;;;2.67;;
8232;SDS011;4157;48.074;9.952;2022-07-19T12:31:55;4.78;;;2.53;;
8232;SDS011;4157;48.074;9.952;2022-07-19T12:34:23;6.70;;;2.38;;
8232;SDS011;4157;48.074;9.952;2022-07-19T12:36:52;5.90;;;2.58;;
8232;SDS011;4157;48.074;9.952;2022-07-19T12:39:21;5.20;;;2.45;;
8232;SDS011;4157;48.074;9.952;2022-07-19T12:41:59;6.07;;;2.70;;
8232;SDS011;4157;48.074;9.952;2022-07-19T12:44:29;5.68;;;2.38;;
8232;SDS011;4157;48.074;9.952;2022-07-19T12:46:57;6.75;;;2.75;;
8232;SDS011;4157;48.074;9.952;2022-07-19T12:49:25;7.70;;;2.60;;
8232;SDS011;4157;48.074;9.952;2022-07-19T12:51:53;11.32;;;3.45;;
8232;SDS011;4157;48.074;9.952;2022-07-19T12:54:21;6.22;;;2.53;;
8232;SDS011;4157;48.074;9.952;2022-07-19T12:56:48;4.63;;;2.20;;
8232;SDS011;4157;48.074;9.952;2022-07-19T12:59:17;4.82;;;2.30;;
8232;SDS011;4157;48.074;9.952;2022-07-19T13:02:04;5.75;;;2.35;;
8232;SDS011;4157;48.074;9.952;2022-07-19T13:04:32;5.90;;;2.78;;
8232;SDS011;4157;48.074;9.952;2022-07-19T13:06:59;5.07;;;2.65;;
8232;SDS011;4157;48.074;9.952;2022-07-19T13:09:27;4.75;;;2.40;;
8232;SDS011;4157;48.074;9.952;2022-07-19T13:11:56;9.18;;;2.63;;
8232;SDS011;4157;48.074;9.952;2022-07-19T13:14:24;6.75;;;2.60;;
8232;SDS011;4157;48.074;9.952;2022-07-19T13:16:52;6.25;;;2.63;;
8232;SDS011;4157;48.074;9.952;2022-07-19T13:19:21;6.32;;;2.50;;
8232;SDS011;4157;48.074;9.952;2022-07-19T13:21:50;7.38;;;2.63;;
8232;SDS011;4157;48.074;9.952;2022-07-19T13:24:18;7.78;;;2.22;;
8232;SDS011;4157;48.074;9.952;2022-07-19T13:26:46;5.85;;;2.47;;
8232;SDS011;4157;48.074;9.952;2022-07-19T13:29:14;5.25;;;2.50;;
8232;SDS011;4157;48.074;9.952;2022-07-19T13:31:42;6.43;;;2.42;;
8232;SDS011;4157;48.074;9.952;2022-07-19T13:34:10;8.30;;;2.85;;
8232;SDS011;4157;48.074;9.952;2022-07-19T13:36:40;7.50;;;2.35;;
8232;SDS011;4157;48.074;9.952;2022-07-19T13:39:08;6.35;;;2.53;;
8232;SDS011;4157;48.074;9.952;2022-07-19T13:41:36;10.55;;;2.80;;
8232;SDS011;4157;48.074;9.952;2022-07-19T13:44:04;7.45;;;2.70;;
8232;SDS011;4157;48.074;9.952;2022-07-19T13:46:33;7.03;;;2.85;;
8232;SDS011;4157;48.074;9.952;2022-07-19T13:49:02;8.07;;;2.40;;
8232;SDS011;4157;48.074;9.952;2022-07-19T13:51:30;6.10;;;2.60;;
8232;SDS011;4157;48.074;9.952;2022-07-19T13:53:59;5.53;;;2.60;;
8232;SDS011;4157;48.074;9.952;2022-07-19T13:56:27;7.68;;;2.60;;
8232;SDS011;4157;48.074;9.952;2022-07-19T13:58:55;5.32;;;2.22;;
8232;SDS011;4157;48.074;9.952;2022-07-19T14:01:22;8.60;;;2.25;;
8232;SDS011;4157;48.074;9.952;2022-07-19T14:03:50;6.22;;;2.63;;
8232;SDS011;4157;48.074;9.952;2022-07-19T14:06:18;5.82;;;2.35;;
8232;SDS011;4157;48.074;9.952;2022-07-19T14:08:46;6.07;;;2.33;;
8232;SDS011;4157;48.074;9.952;2022-07-19T14:11:15;5.80;;;2.40;;
8232;SDS011;4157;48.074;9.952;2022-07-19T14:13:43;4.70;;;2.33;;
8232;SDS011;4157;48.074;9.952;2022-07-19T14:16:11;4.97;;;2.20;;
8232;SDS011;4157;48.074;9.952;2022-07-19T14:18:39;5.80;;;2.20;;
8232;SDS011;4157;48.074;9.952;2022-07-19T14:21:07;8.38;;;2.65;;
8232;SDS011;4157;48.074;9.952;2022-07-19T14:23:35;5.20;;;2.17;;
8232;SDS011;4157;48.074;9.952;2022-07-19T14:26:03;4.80;;;2.00;;
8232;SDS011;4157;48.074;9.952;2022-07-19T14:28:32;5.35;;;2.47;;
8232;SDS011;4157;48.074;9.952;2022-07-19T14:31:00;5.22;;;2.10;;
8232;SDS011;4157;48.074;9.952;2022-07-19T14:33:27;4.72;;;1.85;;
8232;SDS011;4157;48.074;9.952;2022-07-19T14:35:55;4.85;;;2.28;;
8232;SDS011;4157;48.074;9.952;2022-07-19T14:38:23;4.90;;;2.20;;
8232;SDS011;4157;48.074;9.952;2022-07-19T14:40:51;5.70;;;2.25;;
8232;SDS011;4157;48.074;9.952;2022-07-19T14:43:19;6.53;;;2.35;;
8232;SDS011;4157;48.074;9.952;2022-07-19T14:45:48;8.07;;;2.20;;
8232;SDS011;4157;48.074;9.952;2022-07-19T14:48:16;9.77;;;2.20;;
8232;SDS011;4157;48.074;9.952;2022-07-19T14:50:43;7.32;;;2.60;;
8232;SDS011;4157;48.074;9.952;2022-07-19T14:53:11;4.82;;;2.17;;
8232;SDS011;4157;48.074;9.952;2022-07-19T14:55:39;5.45;;;2.20;;
8232;SDS011;4157;48.074;9.952;2022-07-19T14:58:07;7.07;;;2.30;;
8232;SDS011;4157;48.074;9.952;2022-07-19T15:00:35;6.32;;;2.67;;
8232;SDS011;4157;48.074;9.952;2022-07-19T15:03:05;6.45;;;2.88;;
8232;SDS011;4157;48.074;9.952;2022-07-19T15:05:34;3.45;;;2.15;;
8232;SDS011;4157;48.074;9.952;2022-07-19T15:08:02;5.47;;;2.40;;
8232;SDS011;4157;48.074;9.952;2022-07-19T15:10:30;4.85;;;2.63;;
8232;SDS011;4157;48.074;9.952;2022-07-19T15:12:58;5.13;;;2.30;;
8232;SDS011;4157;48.074;9.952;2022-07-19T15:15:25;7.68;;;2.75;;
8232;SDS011;4157;48.074;9.952;2022-07-19T15:17:53;7.07;;;2.78;;
8232;SDS011;4157;48.074;9.952;2022-07-19T15:20:22;8.90;;;2.63;;
8232;SDS011;4157;48.074;9.952;2022-07-19T15:22:50;8.18;;;3.03;;
8232;SDS011;4157;48.074;9.952;2022-07-19T15:25:18;6.38;;;3.03;;
8232;SDS011;4157;48.074;9.952;2022-07-19T15:27:47;7.68;;;2.80;;
8232;SDS011;4157;48.074;9.952;2022-07-19T15:30:15;7.82;;;2.90;;
8232;SDS011;4157;48.074;9.952;2022-07-19T15:32:43;8.20;;;2.90;;